createdAt,value
2022-10-31T00:01:30.646Z,96812.78
2022-10-31T00:03:57.354Z,96796.84
2022-10-31T00:06:24.078Z,96777.91
2022-10-31T00:08:56.202Z,96807.44
2022-10-31T00:11:23.276Z,96756.06
2022-10-31T00:13:49.910Z,96761.13
2022-10-31T00:16:21.874Z,96757.41
2022-10-31T00:18:53.144Z,96744.66
2022-10-31T00:21:21.205Z,96786.28
2022-10-31T00:23:48.294Z,96771.53
2022-10-31T00:26:15.904Z,96759.47
2022-10-31T00:28:42.917Z,96796.41
2022-10-31T00:31:12.503Z,96767.81
2022-10-31T00:33:40.837Z,96761.78
2022-10-31T00:36:08.961Z,96788.97
2022-10-31T00:38:35.634Z,96783.22
2022-10-31T00:41:02.588Z,96758.88
2022-10-31T00:43:29.238Z,96799.50
2022-10-31T00:45:56.096Z,96798.22
2022-10-31T00:48:24.942Z,96803.91
2022-10-31T00:50:52.855Z,96777.13
2022-10-31T00:53:19.448Z,96787.66
2022-10-31T00:55:46.988Z,96743.00
2022-10-31T01:00:41.700Z,96781.06
2022-10-31T01:03:08.364Z,96804.72
2022-10-31T01:05:38.563Z,96798.34
2022-10-31T01:08:05.373Z,96746.66
2022-10-31T01:10:31.999Z,96783.88
2022-10-31T01:12:58.851Z,96752.88
2022-10-31T01:15:25.749Z,96754.81
2022-10-31T01:17:52.457Z,96756.94
2022-10-31T01:20:19.391Z,96806.53
2022-10-31T01:22:46.047Z,96778.53
2022-10-31T01:25:13.239Z,96797.88
2022-10-31T01:27:39.906Z,96781.59
2022-10-31T01:30:11.345Z,96767.09
2022-10-31T01:32:38.028Z,96767.00
2022-10-31T01:35:04.943Z,96766.16
2022-10-31T01:37:32.319Z,96742.19
2022-10-31T01:39:59.245Z,96803.78
2022-10-31T01:42:25.895Z,96799.09
2022-10-31T01:44:56.935Z,96805.09
2022-10-31T01:47:38.727Z,96799.84
2022-10-31T01:50:13.284Z,96805.59
2022-10-31T01:52:44.588Z,96784.75
2022-10-31T01:55:26.397Z,96813.63
2022-10-31T01:57:59.023Z,96761.81
2022-10-31T02:00:26.022Z,96749.97
2022-10-31T02:02:53.037Z,96767.25
2022-10-31T02:05:25.123Z,96815.25
2022-10-31T02:08:13.544Z,96804.53
2022-10-31T02:10:44.907Z,96789.19
2022-10-31T02:13:14.076Z,96787.34
2022-10-31T02:15:50.201Z,96743.59
2022-10-31T02:18:18.171Z,96759.63
2022-10-31T02:21:22.365Z,96789.03
2022-10-31T02:24:07.285Z,96788.34
2022-10-31T02:26:38.210Z,96798.94
2022-10-31T02:29:08.030Z,96793.91
2022-10-31T02:31:51.000Z,96797.00
2022-10-31T02:34:28.068Z,96757.50
2022-10-31T02:37:13.826Z,96805.53
2022-10-31T02:40:06.405Z,96786.00
2022-10-31T02:43:34.632Z,96809.25
2022-10-31T02:46:01.250Z,96809.03
2022-10-31T02:48:32.336Z,96791.34
2022-10-31T02:51:01.867Z,96752.53
2022-10-31T02:53:36.153Z,96803.31
2022-10-31T02:56:17.784Z,96771.59
2022-10-31T02:58:51.428Z,96796.72
2022-10-31T03:01:43.145Z,96799.97
2022-10-31T03:04:44.444Z,96798.56
2022-10-31T03:07:22.600Z,96791.88
2022-10-31T03:09:58.401Z,96792.94
2022-10-31T03:12:35.379Z,96797.63
2022-10-31T03:15:23.436Z,96780.97
2022-10-31T03:18:06.870Z,96781.47
2022-10-31T03:21:07.429Z,96774.97
2022-10-31T03:23:37.261Z,96772.69
2022-10-31T03:26:07.178Z,96798.09
2022-10-31T03:28:45.899Z,96787.22
2022-10-31T03:31:16.344Z,96777.72
2022-10-31T03:33:43.760Z,96789.16
2022-10-31T03:36:14.032Z,96806.63
2022-10-31T03:38:43.967Z,96804.50
2022-10-31T03:41:19.979Z,96802.47
2022-10-31T03:43:57.809Z,96801.09
2022-10-31T03:46:25.769Z,96811.13
2022-10-31T03:48:54.774Z,96766.56
2022-10-31T03:51:34.740Z,96795.94
2022-10-31T03:54:10.282Z,96761.50
2022-10-31T03:57:03.538Z,96814.56
2022-10-31T03:59:35.484Z,96791.00
2022-10-31T04:02:08.896Z,96770.94
2022-10-31T04:04:36.394Z,96786.88
2022-10-31T04:07:08.294Z,96812.25
2022-10-31T04:09:38.206Z,96787.91
2022-10-31T04:12:09.534Z,96798.78
2022-10-31T04:14:57.105Z,96746.19
2022-10-31T04:17:28.235Z,96759.75
2022-10-31T04:19:55.427Z,96797.41
2022-10-31T04:22:22.096Z,96782.53
2022-10-31T04:24:48.697Z,96794.81
2022-10-31T04:27:17.493Z,96752.09
2022-10-31T04:29:46.827Z,96753.66
2022-10-31T04:32:16.783Z,96734.63
2022-10-31T04:34:43.365Z,96794.13
2022-10-31T04:37:11.115Z,96750.22
2022-10-31T04:39:37.993Z,96799.09
2022-10-31T04:42:23.329Z,96768.09
2022-10-31T04:44:49.963Z,96740.22
2022-10-31T04:47:16.649Z,96805.28
2022-10-31T04:49:44.094Z,96787.81
2022-10-31T04:52:12.621Z,96782.75
2022-10-31T04:54:39.293Z,96804.28
2022-10-31T04:57:41.944Z,96797.59
2022-10-31T05:00:10.475Z,96799.59
2022-10-31T05:02:44.715Z,96760.88
2022-10-31T05:05:12.090Z,96769.47
2022-10-31T05:07:47.151Z,96716.81
2022-10-31T05:10:17.275Z,96796.22
2022-10-31T05:13:07.392Z,96797.41
2022-10-31T05:15:52.533Z,96786.38
2022-10-31T05:18:22.195Z,96778.41
2022-10-31T05:21:11.693Z,96778.41
2022-10-31T05:23:47.463Z,96740.41
2022-10-31T05:26:15.433Z,96781.94
2022-10-31T05:28:42.302Z,96735.13
2022-10-31T05:31:08.902Z,96761.22
2022-10-31T05:33:35.490Z,96781.75
2022-10-31T05:36:20.927Z,96777.78
2022-10-31T05:38:57.665Z,96777.06
2022-10-31T05:41:26.382Z,96743.59
2022-10-31T05:44:01.242Z,96779.13
2022-10-31T05:46:30.065Z,96767.09
2022-10-31T05:49:23.710Z,96748.53
2022-10-31T05:52:09.063Z,96758.19
2022-10-31T05:54:46.072Z,96736.94
2022-10-31T05:57:12.848Z,96757.06
2022-10-31T05:59:39.529Z,96759.44
2022-10-31T06:02:06.849Z,96795.34
2022-10-31T06:04:59.779Z,96731.00
2022-10-31T06:07:27.201Z,96716.88
2022-10-31T06:09:53.974Z,96755.38
2022-10-31T06:12:21.788Z,96756.66
2022-10-31T06:15:08.950Z,96793.03
2022-10-31T06:17:36.137Z,96772.69
2022-10-31T06:20:04.323Z,96769.00
2022-10-31T06:22:34.514Z,96772.44
2022-10-31T06:25:01.222Z,96809.91
2022-10-31T06:27:30.545Z,96740.50
2022-10-31T06:29:59.611Z,96814.16
2022-10-31T06:32:31.822Z,96772.31
2022-10-31T06:34:58.732Z,96812.53
2022-10-31T06:37:25.406Z,96790.31
2022-10-31T06:39:54.663Z,96755.28
2022-10-31T06:42:21.476Z,96746.81
2022-10-31T06:44:48.122Z,96809.22
2022-10-31T06:48:16.102Z,96808.53
2022-10-31T06:51:01.725Z,96813.13
2022-10-31T06:53:30.603Z,96727.75
2022-10-31T06:55:57.778Z,96818.84
2022-10-31T06:58:24.964Z,96823.75
2022-10-31T07:00:54.671Z,96782.09
2022-10-31T07:03:21.687Z,96825.25
2022-10-31T07:05:48.300Z,96755.59
2022-10-31T07:08:15.399Z,96830.25
2022-10-31T07:10:43.543Z,96833.28
2022-10-31T07:13:15.088Z,96836.69
2022-10-31T07:15:49.214Z,96817.13
2022-10-31T07:18:16.314Z,96841.38
2022-10-31T07:20:43.054Z,96789.75
2022-10-31T07:23:14.251Z,96771.09
2022-10-31T07:25:43.886Z,96793.63
2022-10-31T07:28:16.556Z,96824.09
2022-10-31T07:30:51.323Z,96825.38
2022-10-31T07:33:20.681Z,96814.78
2022-10-31T07:36:13.524Z,96818.06
2022-10-31T07:38:42.712Z,96787.28
2022-10-31T07:41:09.754Z,96794.00
2022-10-31T07:43:40.971Z,96820.50
2022-10-31T07:46:16.596Z,96771.19
2022-10-31T07:49:15.391Z,96803.25
2022-10-31T07:52:00.195Z,96808.53
2022-10-31T07:54:45.509Z,96801.53
2022-10-31T07:57:12.287Z,96784.47
2022-10-31T07:59:39.372Z,96768.47
2022-10-31T08:02:09.409Z,96788.81
2022-10-31T08:04:48.364Z,96797.09
2022-10-31T08:07:38.489Z,96775.50
2022-10-31T08:10:07.960Z,96811.88
2022-10-31T08:12:35.377Z,96781.56
2022-10-31T08:15:04.319Z,96794.75
2022-10-31T08:17:31.039Z,96771.59
2022-10-31T08:20:00.036Z,96791.25
2022-10-31T08:22:33.825Z,96777.97
2022-10-31T08:25:01.895Z,96826.44
2022-10-31T08:27:28.572Z,96781.16
2022-10-31T08:29:59.492Z,96793.53
2022-10-31T08:32:26.321Z,96801.56
2022-10-31T08:34:53.059Z,96774.22
2022-10-31T08:37:38.000Z,96783.16
2022-10-31T08:40:07.617Z,96815.59
2022-10-31T08:42:35.488Z,96783.69
2022-10-31T08:45:02.653Z,96779.63
2022-10-31T08:47:31.090Z,96783.53
2022-10-31T08:49:58.445Z,96813.75
2022-10-31T08:52:51.272Z,96776.38
2022-10-31T08:55:13.149Z,96784.28
2022-10-31T08:58:14.833Z,96751.81
2022-10-31T09:00:49.820Z,96797.31
2022-10-31T09:03:23.789Z,96747.25
2022-10-31T09:05:51.405Z,96786.94
2022-10-31T09:08:18.154Z,96781.38
2022-10-31T09:10:46.989Z,96787.31
2022-10-31T09:13:22.870Z,96787.69
2022-10-31T09:16:09.690Z,96729.00
2022-10-31T09:18:36.440Z,96773.31
2022-10-31T09:21:03.428Z,96709.72
2022-10-31T09:23:31.656Z,96769.00
2022-10-31T09:26:01.500Z,96794.84
2022-10-31T09:28:32.963Z,96792.22
2022-10-31T09:31:06.132Z,96725.25
2022-10-31T09:33:47.913Z,96758.38
2022-10-31T09:36:49.829Z,96750.75
2022-10-31T09:39:20.989Z,96759.03
2022-10-31T09:42:17.749Z,96761.19
2022-10-31T09:44:54.613Z,96792.38
2022-10-31T09:48:05.666Z,96798.69
2022-10-31T09:50:56.145Z,96795.25
2022-10-31T09:53:46.865Z,96790.53
2022-10-31T09:56:21.328Z,96794.06
2022-10-31T09:58:56.570Z,96795.91
2022-10-31T10:01:42.089Z,96784.47
2022-10-31T10:04:14.637Z,96792.38
2022-10-31T10:06:55.298Z,96752.38
2022-10-31T10:09:48.308Z,96744.94
2022-10-31T10:12:50.305Z,96794.06
2022-10-31T10:15:32.406Z,96790.19
2022-10-31T10:18:19.262Z,96783.69
2022-10-31T10:20:56.882Z,96782.75
2022-10-31T10:23:55.919Z,96774.31
2022-10-31T10:26:36.063Z,96744.03
2022-10-31T10:29:16.432Z,96780.47
2022-10-31T10:31:46.945Z,96758.19
2022-10-31T10:34:25.506Z,96776.31
2022-10-31T10:37:01.336Z,96741.25
2022-10-31T10:39:38.131Z,96769.53
2022-10-31T10:42:31.882Z,96744.84
2022-10-31T10:45:17.577Z,96700.28
2022-10-31T10:47:48.924Z,96703.97
2022-10-31T10:50:28.374Z,96763.25
2022-10-31T10:53:22.041Z,96724.09
2022-10-31T10:55:59.320Z,96757.88
2022-10-31T10:58:26.083Z,96727.34
2022-10-31T11:00:56.152Z,96612.00
2022-10-31T11:03:23.048Z,96754.47
2022-10-31T11:05:52.638Z,96747.34
2022-10-31T11:08:27.731Z,96718.38
2022-10-31T11:11:03.763Z,96746.41
2022-10-31T11:13:31.707Z,96740.94
2022-10-31T11:16:03.068Z,96734.72
2022-10-31T11:18:40.574Z,96736.25
2022-10-31T11:21:20.257Z,96628.16
2022-10-31T11:23:47.081Z,96736.72
2022-10-31T11:26:21.762Z,96731.13
2022-10-31T11:28:59.607Z,96724.75
2022-10-31T11:31:28.242Z,96724.59
2022-10-31T11:34:04.256Z,96682.22
2022-10-31T11:36:34.000Z,96713.38
2022-10-31T11:39:03.658Z,96717.09
2022-10-31T11:41:39.421Z,96704.56
2022-10-31T11:44:14.332Z,96685.09
2022-10-31T11:46:43.910Z,96662.44
2022-10-31T11:49:20.713Z,96696.31
2022-10-31T11:51:53.461Z,96674.22
2022-10-31T11:54:33.068Z,96697.22
2022-10-31T11:56:59.733Z,96666.44
2022-10-31T11:59:31.748Z,96662.91
2022-10-31T12:02:01.136Z,96651.88
2022-10-31T12:04:41.345Z,96651.34
2022-10-31T12:07:08.532Z,96677.59
2022-10-31T12:09:37.036Z,96667.88
2022-10-31T12:12:27.986Z,96676.22
2022-10-31T12:15:27.397Z,96676.16
2022-10-31T12:18:16.042Z,96672.38
2022-10-31T12:21:16.011Z,96650.88
2022-10-31T12:23:49.217Z,96662.91
2022-10-31T12:26:26.822Z,96656.97
2022-10-31T12:29:16.869Z,96655.66
2022-10-31T12:32:21.236Z,96635.78
2022-10-31T12:34:59.979Z,96646.91
2022-10-31T12:37:41.062Z,96628.41
2022-10-31T12:40:45.953Z,96645.03
2022-10-31T12:43:44.429Z,96639.84
2022-10-31T12:46:21.792Z,96619.22
2022-10-31T12:49:07.821Z,96644.22
2022-10-31T12:51:40.368Z,96636.75
2022-10-31T12:54:25.845Z,96600.31
2022-10-31T12:57:22.409Z,96589.44
2022-10-31T12:59:54.464Z,96577.34
2022-10-31T13:02:50.294Z,96623.53
2022-10-31T13:05:19.793Z,96630.19
2022-10-31T13:07:53.952Z,96595.72
2022-10-31T13:10:40.935Z,96627.69
2022-10-31T13:13:27.783Z,96598.84
2022-10-31T13:16:01.837Z,96610.41
2022-10-31T13:18:43.966Z,96547.47
2022-10-31T13:21:18.919Z,96600.16
2022-10-31T13:23:51.323Z,96621.22
2022-10-31T13:26:43.071Z,96610.88
2022-10-31T13:29:36.964Z,96600.06
2022-10-31T13:32:08.258Z,96575.41
2022-10-31T13:34:43.214Z,96599.81
2022-10-31T13:37:30.927Z,96586.69
2022-10-31T13:40:19.077Z,96582.41
2022-10-31T13:43:18.264Z,96562.50
2022-10-31T13:45:53.562Z,96582.03
2022-10-31T13:48:35.929Z,96541.94
2022-10-31T13:51:08.920Z,96556.38
2022-10-31T13:53:51.556Z,96567.84
2022-10-31T13:56:33.760Z,96537.38
2022-10-31T13:59:09.499Z,96558.81
2022-10-31T14:01:47.265Z,96557.94
2022-10-31T14:04:18.013Z,96554.84
2022-10-31T14:06:50.270Z,96550.53
2022-10-31T14:09:43.953Z,96551.97
2022-10-31T14:12:26.529Z,96541.94
2022-10-31T14:14:57.492Z,96532.25
2022-10-31T14:17:33.345Z,96478.03
2022-10-31T14:20:03.956Z,96538.00
2022-10-31T14:22:33.901Z,96510.53
2022-10-31T14:25:02.183Z,96507.44
2022-10-31T14:27:29.033Z,96533.50
2022-10-31T14:29:55.834Z,96509.13
2022-10-31T14:32:27.692Z,96478.66
2022-10-31T14:35:00.136Z,96510.84
2022-10-31T14:38:02.214Z,96496.97
2022-10-31T14:40:53.220Z,96514.84
2022-10-31T14:43:38.591Z,96504.84
2022-10-31T14:46:11.719Z,96470.72
2022-10-31T14:48:54.183Z,96502.56
2022-10-31T14:51:24.496Z,96504.09
2022-10-31T14:53:57.030Z,96459.38
2022-10-31T14:56:26.719Z,96497.72
2022-10-31T14:58:56.408Z,96481.75
2022-10-31T15:01:32.287Z,96468.56
2022-10-31T15:07:03.453Z,96490.94
2022-10-31T15:09:33.707Z,96423.97
2022-10-31T15:12:01.554Z,96480.41
2022-10-31T15:14:32.262Z,96469.59
2022-10-31T15:17:02.183Z,96463.94
2022-10-31T15:19:31.287Z,96460.03
2022-10-31T15:21:59.189Z,96472.44
2022-10-31T15:24:34.701Z,96477.97
2022-10-31T15:27:31.118Z,96471.03
2022-10-31T15:29:58.079Z,96454.28
2022-10-31T15:32:30.098Z,96424.19
2022-10-31T15:34:58.082Z,96437.22
2022-10-31T15:37:26.915Z,96428.59
2022-10-31T15:39:53.759Z,96431.63
2022-10-31T15:42:31.427Z,96456.28
2022-10-31T15:45:02.483Z,96457.88
2022-10-31T15:47:31.729Z,96449.78
2022-10-31T15:50:00.563Z,96446.91
2022-10-31T15:52:48.244Z,96377.53
2022-10-31T15:55:16.822Z,96448.13
2022-10-31T15:57:49.771Z,96441.00
2022-10-31T16:00:28.805Z,96417.34
2022-10-31T16:03:20.015Z,96442.66
2022-10-31T16:06:04.737Z,96422.09
2022-10-31T16:08:31.457Z,96440.09
2022-10-31T16:11:15.218Z,96430.94
2022-10-31T16:14:03.802Z,96439.19
2022-10-31T16:16:35.515Z,96424.44
2022-10-31T16:19:05.587Z,96405.16
2022-10-31T16:21:39.342Z,96351.53
2022-10-31T16:24:29.003Z,96440.28
2022-10-31T16:27:04.898Z,96402.50
2022-10-31T16:29:40.122Z,96358.28
2022-10-31T16:32:35.325Z,96425.91
2022-10-31T16:35:11.169Z,96445.88
2022-10-31T16:37:44.296Z,96427.72
2022-10-31T16:40:15.623Z,96427.09
2022-10-31T16:42:44.215Z,96430.84
2022-10-31T16:45:21.328Z,96464.81
2022-10-31T16:47:49.283Z,96463.88
2022-10-31T16:50:20.360Z,96458.13
2022-10-31T16:55:35.992Z,96473.56
2022-10-31T16:58:03.434Z,96433.72
2022-10-31T17:00:30.255Z,96382.25
2022-10-31T17:02:57.749Z,96449.75
2022-10-31T17:05:30.405Z,96434.44
2022-10-31T17:07:58.144Z,96456.50
2022-10-31T17:10:26.254Z,96446.00
2022-10-31T17:12:53.526Z,96468.25
2022-10-31T17:15:25.180Z,96459.38
2022-10-31T17:17:52.424Z,96438.13
2022-10-31T17:20:25.476Z,96474.63
2022-10-31T17:22:52.664Z,96451.34
2022-10-31T17:25:22.829Z,96399.91
2022-10-31T17:27:50.759Z,96453.78
2022-10-31T17:30:19.315Z,96456.03
2022-10-31T17:32:47.033Z,96450.53
2022-10-31T17:35:14.917Z,96462.97
2022-10-31T17:37:42.985Z,96463.88
2022-10-31T17:40:14.960Z,96467.34
2022-10-31T17:42:41.804Z,96472.78
2022-10-31T17:45:09.028Z,96415.47
2022-10-31T17:47:35.977Z,96435.91
2022-10-31T17:50:02.646Z,96385.16
2022-10-31T17:52:29.313Z,96402.22
2022-10-31T17:54:55.925Z,96399.91
2022-10-31T17:57:22.593Z,96424.06
2022-10-31T17:59:49.186Z,96395.16
2022-10-31T18:02:16.109Z,96446.28
2022-10-31T18:04:42.867Z,96397.78
2022-10-31T18:07:09.559Z,96390.06
2022-10-31T18:09:36.175Z,96423.97
2022-10-31T18:12:02.924Z,96411.91
2022-10-31T18:14:29.591Z,96407.84
2022-10-31T18:16:56.343Z,96358.91
2022-10-31T18:19:23.006Z,96396.22
2022-10-31T18:21:49.652Z,96410.59
2022-10-31T18:24:16.253Z,96401.16
2022-10-31T18:26:42.909Z,96370.22
2022-10-31T18:29:11.533Z,96362.47
2022-10-31T18:31:38.166Z,96364.69
2022-10-31T18:34:05.874Z,96366.22
2022-10-31T18:36:32.663Z,96406.78
2022-10-31T18:38:59.387Z,96408.34
2022-10-31T18:41:26.369Z,96313.88
2022-10-31T18:43:56.190Z,96363.44
2022-10-31T18:46:22.858Z,96380.56
2022-10-31T18:48:49.494Z,96417.78
2022-10-31T18:51:18.587Z,96410.38
2022-10-31T18:54:08.549Z,96382.31
2022-10-31T18:56:35.205Z,96370.84
2022-10-31T18:59:02.407Z,96403.06
2022-10-31T19:01:30.435Z,96269.03
2022-10-31T19:03:58.534Z,96394.84
2022-10-31T19:06:26.549Z,96373.28
2022-10-31T19:09:01.477Z,96394.16
2022-10-31T19:11:28.619Z,96368.97
2022-10-31T19:13:57.322Z,96335.59
2022-10-31T19:16:24.095Z,96351.94
2022-10-31T19:18:55.365Z,96333.25
2022-10-31T19:21:22.633Z,96283.75
2022-10-31T19:23:51.696Z,96332.31
2022-10-31T19:26:18.320Z,96339.09
2022-10-31T19:28:44.956Z,96357.25
2022-10-31T19:31:11.632Z,96358.13
2022-10-31T19:33:38.249Z,96354.78
2022-10-31T19:36:10.720Z,96357.25
2022-10-31T19:38:38.804Z,96374.13
2022-10-31T19:41:08.103Z,96394.31
2022-10-31T19:43:34.931Z,96352.69
2022-10-31T19:46:03.767Z,96382.59
2022-10-31T19:48:37.427Z,96340.44
2022-10-31T19:51:07.781Z,96358.91
2022-10-31T19:53:34.953Z,96370.59
2022-10-31T19:56:02.570Z,96360.41
2022-10-31T19:58:37.985Z,96317.47
2022-10-31T20:01:12.793Z,96355.22
2022-10-31T20:03:40.418Z,96352.28
2022-10-31T20:06:07.678Z,96314.25
2022-10-31T20:08:39.446Z,96336.69
2022-10-31T20:11:06.786Z,96360.34
2022-10-31T20:13:33.533Z,96310.78
2022-10-31T20:16:06.022Z,96368.81
2022-10-31T20:18:32.983Z,96368.34
2022-10-31T20:21:08.730Z,96373.75
2022-10-31T20:23:36.053Z,96383.34
2022-10-31T20:26:03.383Z,96352.50
2022-10-31T20:28:32.034Z,96381.81
2022-10-31T20:31:00.097Z,96321.59
2022-10-31T20:33:27.053Z,96358.94
2022-10-31T20:35:53.732Z,96353.19
2022-10-31T20:38:20.448Z,96353.53
2022-10-31T20:40:47.117Z,96376.00
2022-10-31T20:43:14.518Z,96359.09
2022-10-31T20:45:41.078Z,96311.88
2022-10-31T20:48:07.784Z,96359.75
2022-10-31T20:50:34.383Z,96261.41
2022-10-31T20:53:01.692Z,96370.59
2022-10-31T20:55:28.483Z,96348.44
2022-10-31T20:57:55.110Z,96320.22
2022-10-31T21:00:21.767Z,96353.88
2022-10-31T21:02:49.415Z,96337.75
2022-10-31T21:05:16.108Z,96366.59
2022-10-31T21:07:42.825Z,96317.00
2022-10-31T21:10:16.126Z,96377.91
2022-10-31T21:12:43.880Z,96370.31
2022-10-31T21:15:12.271Z,96346.44
2022-10-31T21:17:39.249Z,96337.13
2022-10-31T21:20:07.840Z,96377.13
2022-10-31T21:22:34.682Z,96383.03
2022-10-31T21:25:01.345Z,96325.38
2022-10-31T21:27:28.092Z,96300.28
2022-10-31T21:29:54.766Z,96339.63
2022-10-31T21:32:21.414Z,96345.19
2022-10-31T21:34:50.166Z,96298.88
2022-10-31T21:37:19.557Z,96303.16
2022-10-31T21:39:50.612Z,96349.97
2022-10-31T21:42:21.337Z,96347.66
2022-10-31T21:44:52.006Z,96345.00
2022-10-31T21:47:18.759Z,96351.53
2022-10-31T21:49:45.360Z,96343.75
2022-10-31T21:52:12.262Z,96352.47
2022-10-31T21:54:38.895Z,96318.47
2022-10-31T21:57:05.665Z,96320.97
2022-10-31T21:59:32.292Z,96313.34
2022-10-31T22:02:00.767Z,96347.31
2022-10-31T22:04:28.790Z,96290.69
2022-10-31T22:06:55.689Z,96302.16
2022-10-31T22:09:23.430Z,96341.25
2022-10-31T22:11:50.158Z,96321.53
2022-10-31T22:14:16.886Z,96312.44
2022-10-31T22:16:43.605Z,96337.53
2022-10-31T22:19:12.831Z,96311.56
2022-10-31T22:21:48.930Z,96289.38
2022-10-31T22:24:17.126Z,96332.47
2022-10-31T22:26:44.141Z,96324.28
2022-10-31T22:29:17.347Z,96322.44
2022-10-31T22:31:50.730Z,96315.31
2022-10-31T22:34:20.705Z,96302.28
2022-10-31T22:36:47.337Z,96305.88
2022-10-31T22:39:14.448Z,96225.75
2022-10-31T22:41:41.612Z,96320.75
2022-10-31T22:44:28.579Z,96292.53
2022-10-31T22:46:55.191Z,96283.06
2022-10-31T22:49:21.859Z,96307.28
2022-10-31T22:51:50.625Z,96268.22
2022-10-31T22:54:18.532Z,96311.59
2022-10-31T22:56:45.895Z,96221.69
2022-10-31T22:59:14.021Z,96308.47
2022-10-31T23:01:41.168Z,96257.28
2022-10-31T23:04:08.872Z,96296.91
2022-10-31T23:06:35.559Z,96231.28
2022-10-31T23:09:05.095Z,96289.78
2022-10-31T23:11:37.892Z,96251.13
2022-10-31T23:14:10.842Z,96282.56
2022-10-31T23:16:43.077Z,96305.88
2022-10-31T23:19:11.765Z,96267.03
2022-10-31T23:21:56.932Z,96259.91
2022-10-31T23:24:33.178Z,96284.47
2022-10-31T23:27:08.685Z,96218.69
2022-10-31T23:29:39.224Z,96287.69
2022-10-31T23:32:09.691Z,96306.66
2022-10-31T23:34:36.695Z,96309.50
2022-10-31T23:37:03.579Z,96285.63
2022-10-31T23:39:30.525Z,96296.47
2022-10-31T23:41:57.173Z,96263.44
2022-10-31T23:44:23.881Z,96319.91
2022-10-31T23:46:50.592Z,96259.13
2022-10-31T23:49:17.368Z,96286.50
2022-10-31T23:51:44.102Z,96293.22
2022-10-31T23:54:11.196Z,96319.25
2022-10-31T23:56:37.824Z,96215.69
2022-10-31T23:59:05.229Z,96312.53
